Time;durP1;ratioP1;P1;durP2;ratioP2;P2;SDS_P1;SDS_P2;PMS_P1;PMS_P2;Temp;Humidity;BMP_temperature;BMP_pressure;BME280_temperature;BME280_humidity;BME280_pressure;Samples;Min_cycle;Max_cycle;Signal;HPM_P1;HPM_P2
2022/02/18 00:00:34;;;;;;;17.20;5.60;;;8.10;99.90;;;8.92;63.59;97709.63;5141468;28;20661;-62
2022/02/18 00:03:07;;;;;;;19.10;5.83;;;8.10;99.90;;;8.98;62.44;97694.69;5143677;28;20223;-62
2022/02/18 00:05:40;;;;;;;15.67;5.20;;;8.10;99.90;;;8.94;63.42;97711.47;5142679;28;20200;-60
2022/02/18 00:08:15;;;;;;;17.47;5.77;;;8.20;99.90;;;8.97;63.45;97719.31;5139398;28;20211;-63
2022/02/18 00:10:49;;;;;;;16.57;5.60;;;8.20;99.90;;;9.03;62.10;97717.13;5139657;28;20663;-63
2022/02/18 00:13:23;;;;;;;15.27;6.20;;;8.20;99.90;;;9.03;63.37;97727.31;5142280;28;20335;-63
2022/02/18 00:15:56;;;;;;;17.43;6.00;;;8.20;99.90;;;8.91;63.74;97729.13;5144042;28;20254;-62
2022/02/18 00:18:29;;;;;;;17.50;6.27;;;8.10;99.90;;;8.92;63.82;97730.88;5140557;28;20200;-62
2022/02/18 00:21:04;;;;;;;17.33;6.03;;;8.10;99.90;;;8.98;63.12;97738.91;5140502;28;20571;-64
2022/02/18 00:23:38;;;;;;;17.13;5.17;;;8.00;99.90;;;8.90;63.06;97722.28;5142626;28;20243;-63
2022/02/18 00:26:11;;;;;;;18.93;5.73;;;8.00;99.90;;;8.91;63.04;97733.34;5140326;28;20652;-63
2022/02/18 00:28:45;;;;;;;18.73;5.90;;;8.00;99.90;;;8.75;63.12;97734.06;5142873;28;20212;-64
2022/02/18 00:31:25;;;;;;;16.93;4.63;;;7.90;99.90;;;8.76;63.65;97740.94;5143256;28;20218;-64
2022/02/18 00:33:58;;;;;;;16.13;6.27;;;7.90;99.90;;;8.81;62.51;97739.53;5144281;28;20320;-63
2022/02/18 00:36:32;;;;;;;13.77;5.73;;;8.00;99.90;;;8.66;63.23;97728.41;5143561;28;20680;-63
2022/02/18 00:39:06;;;;;;;14.03;5.60;;;7.90;99.90;;;8.63;63.73;97733.31;5142511;28;20207;-65
2022/02/18 00:41:39;;;;;;;16.53;5.70;;;7.80;99.90;;;8.64;64.08;97738.53;5143203;28;20200;-63
2022/02/18 00:44:12;;;;;;;14.50;6.00;;;7.80;99.90;;;8.59;64.32;97731.38;5142060;28;20200;-63
2022/02/18 00:46:46;;;;;;;14.50;5.77;;;7.70;99.90;;;8.59;64.04;97732.25;5141951;28;20200;-64
2022/02/18 00:49:19;;;;;;;21.37;5.77;;;7.70;99.90;;;8.58;64.11;97720.28;5142331;28;20226;-63
2022/02/18 00:51:53;;;;;;;16.20;5.93;;;7.70;99.90;;;8.56;64.17;97710.00;5139890;28;20629;-64
2022/02/18 00:54:27;;;;;;;16.37;5.07;;;7.70;99.90;;;8.55;64.40;97723.50;5143263;28;20513;-64
2022/02/18 00:57:00;;;;;;;14.67;5.77;;;7.70;99.90;;;8.52;64.25;97725.88;5139835;28;20207;-64
2022/02/18 00:59:33;;;;;;;15.17;5.80;;;7.80;99.90;;;8.69;63.31;97737.13;5141218;28;20203;-63
2022/02/18 01:02:07;;;;;;;17.83;5.43;;;7.90;99.90;;;8.72;63.83;97746.63;5142151;28;20600;-64
2022/02/18 01:04:40;;;;;;;14.30;5.40;;;7.90;99.90;;;8.69;64.55;97741.34;5143152;28;20199;-63
2022/02/18 01:07:13;;;;;;;17.80;5.57;;;7.80;99.90;;;8.67;63.78;97743.81;5135619;28;20203;-64
2022/02/18 01:09:47;;;;;;;14.47;5.50;;;7.90;99.90;;;8.71;64.30;97757.59;5141673;28;20210;-63
2022/02/18 01:12:21;;;;;;;16.77;5.60;;;7.90;99.90;;;8.68;64.36;97752.31;5140805;28;20223;-64
2022/02/18 01:14:54;;;;;;;19.93;5.53;;;7.90;99.90;;;8.71;64.81;97762.72;5137895;28;20801;-63
2022/02/18 01:17:28;;;;;;;20.77;5.77;;;8.00;99.90;;;8.77;64.70;97761.41;5138219;28;20224;-64
2022/02/18 01:20:01;;;;;;;13.40;5.77;;;8.00;99.90;;;8.84;64.41;97762.66;5142256;28;20226;-63
2022/02/18 01:22:34;;;;;;;17.53;5.77;;;8.00;99.90;;;8.80;64.44;97751.41;5140189;28;20224;-63
2022/02/18 01:25:10;;;;;;;13.17;5.17;;;7.90;99.90;;;8.88;64.33;97744.25;5142686;28;20196;-61
2022/02/18 01:27:44;;;;;;;18.40;5.40;;;8.00;99.90;;;8.89;64.52;97738.34;5142888;28;20204;-63
2022/02/18 01:30:17;;;;;;;17.23;5.43;;;8.00;99.90;;;8.91;64.00;97731.69;5134259;28;20200;-64
2022/02/18 01:32:51;;;;;;;12.80;5.03;;;8.10;99.90;;;8.89;64.89;97737.47;5138418;28;20235;-63
2022/02/18 01:35:24;;;;;;;14.97;5.37;;;8.10;99.90;;;8.91;64.79;97729.13;5140626;28;20215;-63
2022/02/18 01:37:57;;;;;;;13.93;5.60;;;8.10;99.90;;;8.92;64.90;97742.75;5141782;28;20207;-62
2022/02/18 01:40:32;;;;;;;15.60;5.07;;;8.10;99.90;;;8.92;65.13;97728.34;5141433;28;20226;-63
2022/02/18 01:43:05;;;;;;;16.97;5.63;;;8.10;99.90;;;8.94;64.86;97726.78;5135432;28;20230;-62
2022/02/18 01:45:38;;;;;;;12.63;5.73;;;8.20;99.90;;;9.05;64.70;97726.56;5141607;28;20206;-62
2022/02/18 01:48:11;;;;;;;12.80;5.70;;;8.20;99.90;;;9.05;64.19;97724.88;5141774;28;20200;-63
2022/02/18 01:50:45;;;;;;;13.70;5.57;;;8.30;99.90;;;9.08;64.42;97716.53;5138921;28;20205;-63
2022/02/18 01:53:18;;;;;;;11.83;5.17;;;8.30;99.90;;;9.18;63.98;97703.53;5141975;28;20219;-61
2022/02/18 01:55:53;;;;;;;16.10;5.40;;;8.30;99.90;;;9.18;64.72;97703.53;5141012;28;20219;-63
2022/02/18 01:58:27;;;;;;;9.43;4.93;;;8.30;99.90;;;9.18;64.54;97698.44;5138870;28;20210;-63
2022/02/18 02:01:00;;;;;;;15.30;5.67;;;8.40;99.90;;;9.23;64.10;97708.13;5141007;28;20656;-62
2022/02/18 02:03:33;;;;;;;18.03;5.00;;;8.30;99.90;;;9.14;64.69;97701.59;5142025;28;20680;-63
2022/02/18 02:06:07;;;;;;;13.30;4.97;;;8.30;99.90;;;9.21;63.77;97703.72;5140759;28;20207;-61
2022/02/18 02:08:40;;;;;;;12.37;4.80;;;8.40;99.90;;;9.21;64.12;97698.63;5141772;28;20212;-63
2022/02/18 02:11:14;;;;;;;13.03;5.00;;;8.50;99.90;;;9.32;63.59;97707.78;5139688;28;20200;-62
2022/02/18 02:13:50;;;;;;;15.03;5.17;;;8.60;99.90;;;9.24;64.51;97712.47;5141050;28;20651;-62
2022/02/18 02:16:23;;;;;;;15.30;4.97;;;8.50;99.90;;;9.37;63.53;97720.81;5135892;28;20691;-63
2022/02/18 02:18:56;;;;;;;13.30;5.00;;;8.50;99.90;;;9.38;63.66;97728.56;5142754;28;20595;-62
2022/02/18 02:21:29;;;;;;;14.43;5.47;;;8.60;99.90;;;9.44;63.87;97708.53;5145588;28;20671;-62
2022/02/18 02:24:05;;;;;;;15.20;5.43;;;8.60;99.90;;;9.27;64.61;97723.59;5145964;28;20236;-64
2022/02/18 02:26:38;;;;;;;15.23;5.10;;;8.60;99.90;;;9.45;63.70;97706.88;5144815;28;20215;-64
2022/02/18 02:29:11;;;;;;;13.93;5.10;;;8.50;99.90;;;9.39;64.07;97707.38;5144738;28;20208;-62
2022/02/18 02:31:45;;;;;;;12.73;4.47;;;8.60;99.90;;;9.33;63.75;97704.47;5141522;28;20204;-63
2022/02/18 02:34:18;;;;;;;10.87;4.87;;;8.50;99.90;;;9.22;64.76;97711.47;5140305;28;20204;-63
2022/02/18 02:36:52;;;;;;;14.63;5.23;;;8.40;99.90;;;9.12;64.91;97718.47;5140665;28;20220;-64
2022/02/18 02:39:27;;;;;;;15.90;5.27;;;8.40;99.90;;;9.16;64.90;97700.03;5145159;28;20783;-64
2022/02/18 02:42:01;;;;;;;13.23;4.97;;;8.30;99.90;;;9.10;65.23;97697.09;5144326;28;20202;-62
2022/02/18 02:44:35;;;;;;;13.37;5.53;;;8.30;99.90;;;9.03;65.25;97699.28;5145816;28;20200;-64
2022/02/18 02:47:09;;;;;;;12.83;5.27;;;8.30;99.90;;;9.02;66.11;97681.38;5145139;28;20196;-63
2022/02/18 02:49:42;;;;;;;15.23;4.90;;;8.30;99.90;;;9.03;65.93;97673.78;5144780;28;20203;-62
2022/02/18 02:52:15;;;;;;;9.10;4.37;;;8.30;99.90;;;9.00;65.49;97668.50;5140151;28;20219;-62
2022/02/18 02:54:49;;;;;;;13.70;5.20;;;8.20;99.90;;;9.02;66.28;97645.69;5144300;28;20204;-63
2022/02/18 02:57:23;;;;;;;14.37;4.80;;;8.10;99.90;;;8.99;65.95;97655.69;5145296;28;20199;-64
2022/02/18 02:59:56;;;;;;;8.77;4.97;;;8.10;99.90;;;8.91;65.67;97657.78;5148438;28;20675;-64
2022/02/18 03:02:29;;;;;;;10.20;4.37;;;8.10;99.90;;;8.81;66.51;97670.72;5144620;28;20255;-64
2022/02/18 03:05:03;;;;;;;11.57;4.70;;;8.00;99.90;;;8.76;66.16;97682.34;5143983;28;20204;-64
2022/02/18 03:07:36;;;;;;;15.30;4.93;;;8.00;99.90;;;8.73;66.65;97683.03;5138206;28;20218;-63
2022/02/18 03:10:11;;;;;;;10.23;4.47;;;7.90;99.90;;;8.72;67.16;97677.81;5143425;28;20242;-63
2022/02/18 03:12:45;;;;;;;11.30;4.33;;;7.90;99.90;;;8.66;66.82;97667.25;5143774;28;21305;-63
2022/02/18 03:15:18;;;;;;;13.30;4.73;;;7.90;99.90;;;8.65;67.21;97670.59;5144304;28;20204;-63
2022/02/18 03:17:51;;;;;;;13.47;5.10;;;7.90;99.90;;;8.64;67.10;97657.00;5144653;28;20196;-63
2022/02/18 03:20:29;;;;;;;11.67;4.60;;;7.80;99.90;;;8.60;67.62;97656.72;5142308;28;20224;-64
2022/02/18 03:23:02;;;;;;;11.67;4.90;;;7.80;99.90;;;8.51;67.63;97645.16;5145141;28;20226;-64
2022/02/18 03:25:36;;;;;;;11.77;5.47;;;7.70;99.90;;;8.48;67.78;97644.97;5141932;28;20196;-64
2022/02/18 03:28:09;;;;;;;12.53;5.00;;;7.70;99.90;;;8.46;67.68;97636.34;5143917;28;20212;-63
2022/02/18 03:30:42;;;;;;;11.10;5.23;;;7.70;99.90;;;8.39;68.17;97639.31;5142731;28;20203;-63
2022/02/18 03:33:16;;;;;;;12.23;5.07;;;7.60;99.90;;;8.28;68.47;97635.19;5142773;28;20220;-63
2022/02/18 03:35:49;;;;;;;10.10;4.60;;;7.50;99.90;;;8.29;68.63;97642.03;5142492;28;20215;-63
2022/02/18 03:38:22;;;;;;;11.77;4.70;;;7.50;99.90;;;8.28;68.66;97643.72;5143726;28;20207;-64
2022/02/18 03:40:56;;;;;;;14.33;5.23;;;7.50;99.90;;;8.32;68.24;97642.22;5140260;28;20204;-63
2022/02/18 03:43:30;;;;;;;13.07;5.00;;;7.50;99.90;;;8.30;68.75;97638.72;5143457;28;20219;-63
2022/02/18 03:46:03;;;;;;;10.23;4.40;;;7.50;99.90;;;8.28;68.91;97633.53;5143488;28;20299;-63
2022/02/18 03:48:36;;;;;;;12.43;4.83;;;7.50;99.90;;;8.26;69.00;97631.66;5139445;28;20216;-64
2022/02/18 03:51:09;;;;;;;16.17;4.63;;;7.50;99.90;;;8.27;68.85;97621.59;5143408;28;20214;-64
2022/02/18 03:53:43;;;;;;;12.83;4.80;;;7.50;99.90;;;8.24;68.91;97628.13;5142736;28;20425;-63
2022/02/18 03:56:18;;;;;;;14.70;5.10;;;7.50;99.90;;;8.19;69.03;97624.44;5141909;28;20709;-63
2022/02/18 03:58:51;;;;;;;16.10;4.33;;;7.40;99.90;;;8.16;69.34;97614.06;5142183;28;20215;-63
2022/02/18 04:01:24;;;;;;;16.87;5.07;;;7.40;99.90;;;8.15;69.74;97617.38;5141679;28;20210;-63
2022/02/18 04:03:57;;;;;;;11.90;4.27;;;7.40;99.90;;;8.11;69.49;97617.19;5142904;28;20231;-64
2022/02/18 04:06:30;;;;;;;11.60;4.80;;;7.30;99.90;;;8.10;69.64;97605.25;5142969;28;20208;-64
2022/02/18 04:09:04;;;;;;;9.50;4.27;;;7.30;99.90;;;8.07;69.65;97612.72;5141034;28;20211;-62
2022/02/18 04:11:38;;;;;;;14.87;4.47;;;7.30;99.90;;;8.03;70.02;97615.84;5142398;28;20204;-63
2022/02/18 04:14:11;;;;;;;13.93;4.77;;;7.30;99.90;;;8.05;70.14;97621.91;5143094;28;20771;-63
2022/02/18 04:16:44;;;;;;;9.60;4.40;;;7.30;99.90;;;7.98;69.98;97618.88;5139412;28;20228;-64
2022/02/18 04:19:17;;;;;;;9.17;3.90;;;7.20;99.90;;;7.99;70.28;97620.66;5142238;28;20200;-63
2022/02/18 04:22:11;;;;;;;9.57;4.43;;;7.20;99.90;;;7.97;70.60;97624.75;5137309;28;20224;-63
2022/02/18 04:24:44;;;;;;;15.47;4.43;;;7.20;99.90;;;7.93;70.61;97607.56;5141633;28;20207;-63
2022/02/18 04:27:18;;;;;;;10.13;3.70;;;7.10;99.90;;;7.89;70.66;97602.25;5140225;28;20223;-63
2022/02/18 04:29:51;;;;;;;9.80;4.00;;;7.10;99.90;;;7.88;70.83;97614.88;5142326;28;20675;-64
2022/02/18 04:32:24;;;;;;;7.97;4.03;;;7.10;99.90;;;7.78;70.84;97620.16;5132043;28;20228;-63
2022/02/18 04:34:58;;;;;;;10.90;4.83;;;7.00;99.90;;;7.78;71.18;97615.94;5139843;28;20236;-63
2022/02/18 04:37:33;;;;;;;12.33;4.67;;;7.00;99.90;;;7.75;71.52;97609.78;5141691;28;20318;-63
2022/02/18 04:40:08;;;;;;;9.90;4.43;;;7.00;99.90;;;7.74;71.50;97610.59;5141940;28;20240;-64
2022/02/18 04:42:43;;;;;;;12.73;4.53;;;6.90;99.90;;;7.68;72.28;97604.31;5138605;28;20223;-63
2022/02/18 04:45:16;;;;;;;10.37;4.67;;;6.90;99.90;;;7.67;72.02;97597.47;5137703;28;20695;-62
2022/02/18 04:47:50;;;;;;;11.00;4.40;;;6.90;99.90;;;7.63;72.76;97575.16;5133362;28;20192;-63
2022/02/18 04:50:23;;;;;;;11.93;5.00;;;6.80;99.90;;;7.61;72.49;97581.81;5144215;28;20664;-63
2022/02/18 04:52:57;;;;;;;9.70;4.90;;;6.80;99.90;;;7.58;72.81;97570.56;5133381;28;20228;-63
2022/02/18 04:55:30;;;;;;;9.47;4.80;;;6.80;99.90;;;7.53;72.42;97572.81;5136658;28;20290;-64
2022/02/18 04:58:04;;;;;;;9.77;4.77;;;6.80;99.90;;;7.53;73.03;97567.75;5142008;28;20242;-63
2022/02/18 05:00:37;;;;;;;11.77;5.30;;;6.70;99.90;;;7.49;73.25;97554.72;5135388;28;20215;-64
2022/02/18 05:03:11;;;;;;;13.90;5.43;;;6.70;99.90;;;7.51;73.27;97551.50;5138710;28;20231;-64
2022/02/18 05:05:44;;;;;;;14.53;6.80;;;6.70;99.90;;;7.49;73.37;97545.41;5142198;28;20204;-64
2022/02/18 05:08:17;;;;;;;16.93;7.47;;;6.70;99.90;;;7.49;73.38;97542.88;5142667;28;20199;-63
2022/02/18 05:10:50;;;;;;;18.43;8.77;;;6.70;99.90;;;7.60;73.81;97538.47;5135178;28;20199;-64
2022/02/18 05:13:24;;;;;;;14.67;6.83;;;6.70;99.90;;;7.54;74.72;97543.19;5137785;28;20240;-64
2022/02/18 05:15:57;;;;;;;11.40;5.00;;;6.70;99.90;;;7.51;74.83;97543.00;5134457;28;20210;-63
2022/02/18 05:18:31;;;;;;;12.00;4.33;;;6.70;99.90;;;7.43;74.55;97539.94;5141444;28;20594;-64
2022/02/18 05:21:04;;;;;;;11.73;4.90;;;6.50;99.90;;;7.39;74.05;97543.09;5139697;28;20207;-64
2022/02/18 05:23:37;;;;;;;14.43;4.57;;;6.50;99.90;;;7.33;75.09;97537.63;5133038;28;20227;-63
2022/02/18 05:26:10;;;;;;;9.83;4.87;;;6.50;99.90;;;7.31;75.65;97546.81;5136623;28;20208;-63
2022/02/18 05:28:44;;;;;;;16.70;5.47;;;6.50;99.90;;;7.31;75.67;97539.19;5142606;28;20199;-63
2022/02/18 05:31:17;;;;;;;10.33;5.17;;;6.50;99.90;;;7.32;75.65;97540.91;5143633;28;20200;-63
2022/02/18 05:33:50;;;;;;;12.27;5.37;;;6.50;99.90;;;7.43;75.14;97535.75;5141997;28;20220;-64
2022/02/18 05:36:24;;;;;;;12.23;5.23;;;6.60;99.90;;;7.44;75.48;97531.56;5135169;28;20382;-62
2022/02/18 05:38:57;;;;;;;11.73;4.80;;;6.60;99.90;;;7.50;75.44;97525.94;5139409;28;20204;-63
2022/02/18 05:41:30;;;;;;;14.43;4.80;;;6.70;99.90;;;7.62;74.95;97514.91;5138684;28;20196;-63
2022/02/18 05:44:05;;;;;;;9.23;4.70;;;6.70;99.90;;;7.61;75.06;97499.53;5135851;28;20228;-63
2022/02/18 05:46:38;;;;;;;9.90;4.97;;;6.80;99.90;;;7.61;75.57;97490.28;5133999;28;20621;-63
2022/02/18 05:49:12;;;;;;;17.10;6.40;;;6.80;99.90;;;7.67;75.20;97479.59;5141274;28;20208;-64
2022/02/18 05:51:45;;;;;;;13.67;5.47;;;6.90;99.90;;;7.63;74.24;97473.41;5141088;28;20196;-63
2022/02/18 05:54:19;;;;;;;13.03;5.67;;;6.80;99.90;;;7.62;74.89;97474.22;5140239;28;20204;-63
2022/02/18 05:56:52;;;;;;;12.83;5.07;;;6.80;99.90;;;7.62;75.04;97456.41;5139460;28;20222;-63
2022/02/18 05:59:27;;;;;;;13.07;5.60;;;6.90;99.90;;;7.68;75.20;97445.72;5145973;28;20230;-63
2022/02/18 06:02:00;;;;;;;14.50;6.77;;;6.90;99.90;;;7.62;75.57;97446.25;5145479;28;20206;-63
2022/02/18 06:04:33;;;;;;;11.57;6.27;;;6.90;99.90;;;7.60;75.77;97442.72;5145483;28;20200;-66
2022/02/18 06:07:06;;;;;;;13.80;6.77;;;6.90;99.90;;;7.65;75.01;97438.78;5146666;28;20210;-64
2022/02/18 06:09:39;;;;;;;13.07;5.90;;;6.90;99.90;;;7.67;75.78;97449.94;5142217;28;20204;-64
2022/02/18 06:12:12;;;;;;;11.97;4.77;;;6.90;99.90;;;7.73;75.09;97434.19;5142077;28;20216;-64
2022/02/18 06:14:50;;;;;;;10.30;4.83;;;6.90;99.90;;;7.78;75.13;97426.81;5145566;28;20210;-64
2022/02/18 06:17:23;;;;;;;9.20;4.30;;;7.00;99.90;;;7.84;75.24;97434.81;5140047;28;20228;-63
2022/02/18 06:19:56;;;;;;;10.40;4.43;;;7.10;99.90;;;7.87;74.60;97423.19;5139787;28;20212;-63
2022/02/18 06:22:30;;;;;;;12.77;4.73;;;7.20;99.90;;;7.97;74.53;97437.31;5147099;28;20242;-63
2022/02/18 06:25:04;;;;;;;13.73;6.03;;;7.20;99.90;;;8.15;73.50;97429.03;5147502;28;20659;-63
2022/02/18 06:27:38;;;;;;;12.47;5.53;;;7.20;99.90;;;8.00;74.20;97413.72;5145391;28;20196;-63
2022/02/18 06:30:13;;;;;;;12.03;4.90;;;7.20;99.90;;;7.95;74.56;97421.06;5145617;28;20196;-63
2022/02/18 06:32:46;;;;;;;11.27;5.13;;;7.20;99.90;;;7.96;74.57;97402.50;5145554;28;20712;-63
2022/02/18 06:35:19;;;;;;;11.50;4.93;;;7.10;99.90;;;7.95;75.12;97398.16;5140780;28;20218;-63
2022/02/18 06:37:53;;;;;;;10.03;4.40;;;7.20;99.90;;;7.94;74.50;97398.97;5153377;28;20223;-63
2022/02/18 06:40:26;;;;;;;11.73;5.03;;;7.20;99.90;;;7.99;74.70;97396.72;5146914;28;20208;-63
2022/02/18 06:42:59;;;;;;;12.87;5.40;;;7.20;99.90;;;7.98;74.75;97400.91;5146621;28;20224;-63
2022/02/18 06:45:34;;;;;;;10.57;5.20;;;7.20;99.90;;;7.99;74.70;97405.22;5146778;28;20200;-63
2022/02/18 06:48:09;;;;;;;10.07;4.70;;;7.20;99.90;;;8.03;75.18;97402.06;5149486;28;20191;-63
2022/02/18 06:50:42;;;;;;;13.40;5.10;;;7.30;99.90;;;8.07;74.92;97393.81;5143469;28;20210;-63
2022/02/18 06:53:15;;;;;;;14.70;4.63;;;7.30;99.90;;;8.08;74.88;97380.31;5145218;28;20566;-63
2022/02/18 06:55:48;;;;;;;9.40;4.47;;;7.30;99.90;;;8.12;74.81;97383.91;5145769;28;20216;-64
2022/02/18 06:58:21;;;;;;;12.77;5.03;;;7.30;99.90;;;8.30;74.10;97368.84;5140907;28;20223;-63
2022/02/18 07:00:56;;;;;;;13.50;6.07;;;7.40;99.90;;;8.09;74.10;97364.22;5144430;28;20204;-63
2022/02/18 07:03:29;;;;;;;12.57;5.57;;;7.40;99.90;;;8.03;74.83;97368.97;5145368;28;20227;-63
2022/02/18 07:06:03;;;;;;;11.33;4.50;;;7.30;99.90;;;8.08;75.07;97366.72;5142986;28;20196;-63
2022/02/18 07:08:36;;;;;;;11.37;4.97;;;7.30;99.90;;;8.11;75.27;97367.75;5141235;28;20203;-63
2022/02/18 07:11:09;;;;;;;12.33;6.03;;;7.30;99.90;;;8.12;75.68;97354.22;5144908;28;20310;-63
2022/02/18 07:13:43;;;;;;;13.37;5.87;;;7.40;99.90;;;8.18;75.39;97348.63;5142759;28;20223;-63
2022/02/18 07:16:17;;;;;;;10.60;5.30;;;7.40;99.90;;;8.23;75.71;97347.22;5143843;28;20222;-63
2022/02/18 07:18:50;;;;;;;17.10;8.43;;;7.40;99.90;;;8.28;75.76;97348.38;5142331;28;20234;-63
2022/02/18 07:21:23;;;;;;;14.20;9.33;;;7.40;99.90;;;8.26;76.47;97342.31;5145326;28;20208;-64
2022/02/18 07:23:56;;;;;;;13.23;7.90;;;7.40;99.90;;;8.28;76.80;97339.84;5141893;28;20224;-63
2022/02/18 07:26:29;;;;;;;11.00;7.20;;;7.40;99.90;;;8.32;76.99;97341.78;5142694;28;20206;-64
2022/02/18 07:29:03;;;;;;;11.90;5.20;;;7.50;99.90;;;8.36;77.55;97331.00;5142872;28;20202;-63
2022/02/18 07:31:37;;;;;;;10.33;4.80;;;7.60;99.90;;;8.38;77.27;97331.94;5142649;28;20255;-63
2022/02/18 07:34:10;;;;;;;9.33;5.00;;;7.60;99.90;;;8.49;76.71;97325.81;5139511;28;20231;-63
2022/02/18 07:36:43;;;;;;;10.53;4.20;;;7.60;99.90;;;8.42;77.13;97313.53;5142717;28;20196;-63
2022/02/18 07:39:16;;;;;;;10.47;4.87;;;7.50;99.90;;;8.41;77.19;97321.94;5141074;28;20695;-63
2022/02/18 07:41:49;;;;;;;10.13;4.23;;;7.50;99.90;;;8.43;77.66;97310.19;5144131;28;20204;-63
2022/02/18 07:44:23;;;;;;;8.50;4.60;;;7.60;99.90;;;8.53;77.64;97306.50;5143794;28;20208;-63
2022/02/18 07:46:57;;;;;;;8.57;4.20;;;7.70;99.90;;;8.64;76.91;97299.44;5141031;28;20219;-63
2022/02/18 07:49:50;;;;;;;9.20;4.40;;;7.90;99.90;;;8.74;75.49;97301.72;5141995;28;20219;-63
2022/02/18 07:52:24;;;;;;;10.10;5.20;;;8.00;99.90;;;8.85;74.84;97289.56;5139033;28;20219;-63
2022/02/18 07:54:57;;;;;;;13.73;7.00;;;8.10;99.90;;;8.98;75.07;97287.75;5140085;28;20665;-63
2022/02/18 07:57:31;;;;;;;15.37;8.17;;;8.10;99.90;;;8.95;75.58;97279.06;5142956;28;20220;-63
2022/02/18 08:00:05;;;;;;;13.43;6.57;;;8.10;99.90;;;9.17;74.27;97273.44;5143195;28;20227;-63
2022/02/18 08:02:40;;;;;;;9.73;5.70;;;8.20;99.90;;;8.90;75.90;97266.09;5143270;28;20226;-63
2022/02/18 08:05:15;;;;;;;10.53;4.97;;;8.00;99.90;;;8.89;75.89;97260.91;5143153;28;20206;-63
2022/02/18 08:07:48;;;;;;;13.97;5.30;;;8.10;99.90;;;8.94;76.21;97259.47;5140518;28;20307;-63
2022/02/18 08:10:21;;;;;;;9.57;4.90;;;8.10;99.90;;;8.96;76.44;97252.81;5146215;28;20211;-63
2022/02/18 08:12:55;;;;;;;12.43;6.13;;;8.10;99.90;;;9.04;75.97;97243.84;5145476;28;20736;-63
2022/02/18 08:15:28;;;;;;;11.87;6.20;;;8.10;99.90;;;9.07;76.34;97238.06;5142605;28;20576;-63
2022/02/18 08:18:02;;;;;;;10.53;5.57;;;8.10;99.90;;;9.11;77.09;97227.22;5143970;28;20207;-63
2022/02/18 08:20:35;;;;;;;13.23;4.93;;;8.20;99.90;;;9.21;76.72;97219.25;5143828;28;20203;-63
2022/02/18 08:23:08;;;;;;;10.93;4.40;;;8.40;99.90;;;9.38;75.23;97220.13;5142689;28;20229;-63
2022/02/18 08:25:41;;;;;;;10.30;4.80;;;8.50;99.90;;;9.48;74.25;97225.78;5143604;28;20200;-62
2022/02/18 08:28:16;;;;;;;9.63;4.93;;;8.70;99.90;;;9.63;75.47;97224.78;5138022;28;20196;-63
2022/02/18 08:30:49;;;;;;;9.87;5.77;;;8.80;99.90;;;9.75;75.68;97211.78;5139384;28;20199;-63
2022/02/18 08:33:24;;;;;;;13.13;5.90;;;8.90;99.90;;;9.86;75.14;97206.41;5144176;28;20223;-63
2022/02/18 08:35:57;;;;;;;12.80;6.77;;;9.00;99.90;;;10.04;73.54;97187.66;5142840;28;20208;-63
2022/02/18 08:38:30;;;;;;;10.43;6.20;;;9.10;99.90;;;10.01;73.74;97202.84;5139627;28;20220;-63
2022/02/18 08:41:04;;;;;;;14.23;6.30;;;9.00;99.90;;;10.04;72.53;97191.09;5141447;28;20567;-62
2022/02/18 08:43:37;;;;;;;14.15;5.82;;;9.00;99.90;;;10.05;72.41;97199.66;5144543;28;20688;-64
2022/02/18 08:46:10;;;;;;;12.50;5.80;;;9.00;99.90;;;10.10;72.35;97187.94;5144961;28;20569;-62
2022/02/18 08:48:44;;;;;;;11.83;6.50;;;9.00;99.90;;;10.03;72.96;97193.59;5140547;28;20196;-64
2022/02/18 08:51:17;;;;;;;10.90;6.15;;;9.00;99.90;;;9.99;73.27;97178.94;5139138;28;20205;-64
2022/02/18 08:53:50;;;;;;;11.48;6.07;;;9.10;99.90;;;10.05;72.91;97194.53;5143760;28;20731;-62
2022/02/18 08:56:26;;;;;;;15.43;6.65;;;9.10;99.90;;;10.04;72.84;97185.09;5142124;28;20208;-63
2022/02/18 08:58:59;;;;;;;12.63;6.13;;;9.20;99.90;;;10.10;72.80;97182.84;5143071;28;20207;-63
2022/02/18 09:01:32;;;;;;;10.88;6.13;;;9.20;99.90;;;10.17;72.70;97172.13;5142794;28;20784;-63
2022/02/18 09:04:07;;;;;;;12.27;5.80;;;9.30;99.90;;;10.27;72.68;97169.25;5142940;28;20223;-63
2022/02/18 09:06:40;;;;;;;11.57;6.38;;;9.40;99.90;;;10.34;73.13;97158.50;5141693;28;20207;-63
2022/02/18 09:09:13;;;;;;;15.15;7.03;;;9.50;99.90;;;10.38;72.99;97149.28;5133214;28;20197;-63
2022/02/18 09:11:46;;;;;;;13.02;6.35;;;9.50;99.90;;;10.42;72.20;97146.09;5139039;28;20218;-63
2022/02/18 09:14:19;;;;;;;11.48;6.30;;;9.50;99.90;;;10.51;71.98;97146.50;5140706;28;20207;-64
2022/02/18 09:16:53;;;;;;;14.25;6.85;;;9.60;99.90;;;10.64;71.83;97132.59;5139195;28;20193;-61
2022/02/18 09:19:27;;;;;;;15.85;6.90;;;9.70;99.90;;;10.74;71.95;97128.78;5137867;28;20563;-63
2022/02/18 09:22:00;;;;;;;14.25;7.68;;;9.80;99.90;;;10.81;71.90;97121.44;5140492;28;20667;-62
2022/02/18 09:24:34;;;;;;;11.30;6.82;;;9.90;99.90;;;10.94;72.61;97116.88;5141645;28;20656;-64
2022/02/18 09:27:07;;;;;;;12.20;6.35;;;10.00;99.90;;;11.09;72.49;97109.00;5139851;28;20196;-63
2022/02/18 09:29:40;;;;;;;11.73;4.57;;;10.20;99.90;;;11.26;71.76;97105.47;5136686;28;20196;-64
2022/02/18 09:32:15;;;;;;;6.72;3.80;;;10.40;99.90;;;11.38;71.08;97094.84;5139739;28;20570;-62
2022/02/18 09:34:49;;;;;;;5.75;3.58;;;10.60;99.90;;;11.58;70.79;97093.97;5135027;28;20206;-63
2022/02/18 09:37:22;;;;;;;7.63;2.95;;;10.80;99.90;;;11.71;70.50;97090.25;5142430;28;20209;-63
2022/02/18 09:39:55;;;;;;;5.45;2.72;;;10.90;99.90;;;11.83;69.99;97089.88;5135320;28;20239;-63
2022/02/18 09:42:29;;;;;;;6.10;3.30;;;11.10;99.90;;;11.94;69.85;97083.50;5138845;28;20708;-63
2022/02/18 09:45:04;;;;;;;7.78;3.78;;;11.20;99.90;;;12.04;69.40;97077.91;5142489;28;20196;-63
2022/02/18 09:47:37;;;;;;;6.15;3.17;;;11.20;99.90;;;12.15;69.14;97081.75;5139464;28;20196;-63
2022/02/18 09:50:12;;;;;;;7.57;3.30;;;11.30;99.90;;;12.24;69.06;97085.50;5143361;28;20195;-63
2022/02/18 09:52:58;;;;;;;7.25;3.72;;;11.40;99.90;;;12.35;68.59;97081.66;5135833;28;20223;-62
2022/02/18 09:55:33;;;;;;;8.98;4.20;;;11.50;99.90;;;12.45;68.41;97068.38;5139518;28;20608;-63
2022/02/18 09:58:07;;;;;;;12.65;5.63;;;11.60;99.90;;;12.55;67.83;97073.00;5142022;28;20199;-63
2022/02/18 10:00:41;;;;;;;8.15;4.93;;;11.60;99.90;;;12.61;68.02;97075.78;5135342;28;20238;-63
2022/02/18 10:03:14;;;;;;;10.63;5.45;;;11.80;99.90;;;12.71;67.50;97071.00;5133897;28;20220;-62
2022/02/18 10:05:49;;;;;;;7.85;4.70;;;11.80;99.90;;;12.80;67.62;97071.31;5135008;28;20197;-63
2022/02/18 10:08:22;;;;;;;5.45;3.72;;;11.90;99.90;;;12.92;66.45;97058.94;5135031;28;20219;-64
2022/02/18 10:11:02;;;;;;;6.93;3.28;;;11.90;99.90;;;13.07;66.18;97056.88;5133865;28;20703;-64
2022/02/18 10:13:38;;;;;;;6.50;3.55;;;12.10;99.90;;;13.12;66.86;97040.78;5140097;28;20223;-63
2022/02/18 10:16:15;;;;;;;4.40;2.92;;;12.10;99.90;;;13.20;65.71;97041.91;5136731;28;20571;-63
2022/02/18 10:18:53;;;;;;;7.20;3.75;;;12.20;99.90;;;13.25;66.10;97040.38;5138752;28;20682;-63
2022/02/18 10:21:30;;;;;;;5.28;3.13;;;12.30;99.90;;;13.29;66.59;97044.81;5137526;28;20214;-63
2022/02/18 10:24:10;;;;;;;5.57;3.40;;;12.30;99.90;;;13.39;65.27;97030.59;5140822;28;20220;-64
2022/02/18 10:26:45;;;;;;;5.15;3.38;;;12.40;99.90;;;13.45;66.38;97023.97;5134486;28;20208;-64
2022/02/18 10:29:21;;;;;;;8.48;3.72;;;12.50;99.90;;;13.50;65.40;97017.25;5138372;28;20196;-64
2022/02/18 10:32:09;;;;;;;6.07;2.78;;;12.50;99.90;;;13.57;64.80;97014.91;5138635;28;20211;-64
2022/02/18 10:34:53;;;;;;;4.40;3.28;;;12.50;99.90;;;13.67;65.51;97009.22;5137191;28;20209;-62
2022/02/18 10:37:30;;;;;;;6.38;3.60;;;12.60;99.90;;;13.74;64.91;97003.47;5142650;28;20204;-64
2022/02/18 10:40:10;;;;;;;5.70;3.40;;;12.70;99.90;;;13.88;65.54;97001.34;5146308;28;20230;-64
2022/02/18 10:42:44;;;;;;;5.57;3.10;;;13.00;99.90;;;14.22;64.58;96990.31;5145505;28;20219;-65
2022/02/18 10:45:20;;;;;;;6.25;2.90;;;13.20;99.90;;;14.69;62.66;96983.09;5144365;28;20215;-63
2022/02/18 10:48:08;;;;;;;4.78;2.45;;;13.60;99.90;;;14.85;62.62;96980.09;5144549;28;20218;-63
2022/02/18 10:50:42;;;;;;;4.47;2.70;;;14.00;99.90;;;14.94;61.90;96963.16;5138305;28;20550;-63
2022/02/18 10:53:19;;;;;;;4.25;2.63;;;14.10;99.90;;;15.16;60.94;96954.25;5143215;28;20234;-64